Laclede, ID

1:23 AM PDT on August 21, 2014 (GMT -0700)
ITD Old Town ID US | Change Station
CLOSE
Current Station
Personal Weather Station
Location: Oldtown, ID
Elevation: 2320 ft
Nearby Weather Stations

Elev 2320 ft 48.17 °N, 117.02 °W | Updated 38 minutes ago

Clear
Clear
56 °F
Feels Like 56 °F
N
1
Wind Variable Wind from NNW
Gusts 2.0 mph

Today
High -- | Low -- °F
--% Chance of Precip.
Yesterday
High -- | Low -- °F
Precip. -- in
5:50 AM 7:50 PM
Waning Crescent, 16% visible
Pressure 29.95 in
Visibility 10.0 miles
Clouds Clear
Dew Point 56 °F
Humidity 100%
Rainfall 0.08 in
Snow Depth Not available.
UV 0 out of 12
Pollen 6.60 out of 12
Air Quality Not available.
Flu Activity Not available.
METAR KSZT 210815Z AUTO 00000KT 10SM CLR 12/12 A2995 RMK AO2

More Conditions Fewer Conditions

Pressure 29.95 in
Visibility 10.0 miles
Clouds Clear
Dew Point 56 °F
Humidity 100%
Rainfall 0.08 in
Snow Depth Not available.
UV 0 out of 12
Pollen 6.60 out of 12
Air Quality Not available.
Flu Activity Not available.
METAR KSZT 210815Z AUTO 00000KT 10SM CLR 12/12 A2995 RMK AO2

More Conditions Fewer Conditions

10-Day Weather Forecast

Almanac

Astronomy

Aug. 21, 2014 Rise Set
Actual Time 5:50 AM PDT 7:50 PM PDT
Civil Twilight 5:16 AM PDT 8:23 PM PDT
Nautical Twilight 4:35 AM PDT 9:04 PM PDT
Astronomical Twilight 3:48 AM PDT 9:50 PM PDT
Moon 2:16 AM PDT 5:28 PM PDT
Length of Visible Light 15h 06m
Length of Day
13h 59m
Tomorrow will be 3m 15s shorter.
Waning Crescent, 16% of the Moon is Illuminated
Today
Waning Crescent
Aug 25
New
Sep 2
First Quarter
Sep 8
Full
Sep 15
Last Quarter

Today's Extremes

State Highs State Lows

Community

WunderPhotos

Upload Photos

1,745,867 photos uploaded!

Nearby

Snow Depth

Station Depth Elevation
Schweitzer Basin 1 in 6090 ft
Mosquito Ridge 0 in 5200 ft
Bear Mountain 0 in 5400 ft
Myrtle Creek 0 in 3520 ft
Hidden Lake 1 in 5040 ft

Earthquake Activity

City Distance Mag. Time & Date
No recent earthquake activity has been reported nearby.
Minimum magnitude displayed is 2.5.

Coastal Water Temperatures

Place Temperature
No Stations Reporting

Nearby Weather Stations